• Join FlightAware (Why Join?)
  • Login
  • US Flag 
06:42PM EDT


 

Airport Tracker/Info


-or-


 

Live Flight TrackerFlight Track Log ✈ AAL2007 ✈ 08-Jun-2013 ✈ KORD - KAUS

Flight Track Log - Related Links

Times and Time Zones

All times are in EDT time to prevent confusion due to time zone crossing. See the AAL2007 flight status page for this flight to view local times or setup timezone preferences in your user account.

Time Position Orientation Groundspeed Altitude Reporting Facility
EDT Latitude Longitude Course Direction KTS MPH feet Rate Location/Type
06:04PM 41.9167 -87.9167 207° Southwest 198 228 3,100  Level Chicago TRACON
06:04PM 41.8694 -87.9139 177° South 244 281 4,400 2,820 Climbing Chicago Center
06:05PM 41.8047 -88.0842 201° Southwest  Level Estimated
06:05PM 41.8036 -87.9522 203° Southwest 255 293 8,000  Level Chicago Center
06:06PM 41.6942 -88.0837 180° South  Level FlightAware Approximate
06:06PM 41.7347 -87.9914 203° Southwest 268 308 10,800  Level Chicago Center
06:07PM 41.6059 -88.1725 197° South  Level Estimated
06:07PM 41.6617 -88.0331 203° Southwest 285 328 13,500  Level Chicago Center
06:08PM 41.4960 -88.1582 174° South  Level FlightAware Approximate
06:08PM 41.5794 -88.0808 203° Southwest 323 372 15,000  Level Chicago Center
06:09PM 41.4115 -88.2438 207° Southwest  Level Estimated
06:09PM 41.4683 -88.1439 203° Southwest 369 425 17,800  Level Chicago Center
06:10PM 41.3717 -88.1964 202° Southwest 392 451 20,000 1,980 Climbing Chicago Center
06:11PM 41.2661 -88.2419 198° South 404 465 22,000 2,040 Climbing Chicago Center
06:12PM 41.1364 -88.3025 199° South 415 478 24,200 1,920 Climbing Chicago Center
06:13PM 41.0261 -88.3522 199° South 420 483 26,000 1,740 Climbing Chicago Center
06:15PM 40.9122 -88.4017 198° South 431 496 27,800 1,620 Climbing Chicago Center
06:16PM 40.8233 -88.4983 219° Southwest 417 480 29,400 1,320 Climbing Chicago Center
06:17PM 40.7325 -88.5975 220° Southwest 423 487 30,600 1,140 Climbing Chicago Center
06:18PM 40.6381 -88.6933 218° Southwest 430 495 31,800 660 Climbing Chicago Center
06:19PM 40.5242 -88.8092 218° Southwest 433 498 32,000 60 Climbing Chicago Center
06:20PM 40.4444 -88.8908 218° Southwest 430 495 32,000  Level Chicago Center
06:21PM 40.3500 -88.9867 218° Southwest 428 493 32,000  Level Chicago Center
06:22PM 40.2361 -89.1053 219° Southwest 433 498 32,000  Level Chicago Center
06:23PM 40.1406 -89.2019 218° Southwest 433 498 32,000  Level Chicago Center
06:23PM 40.0814 -89.2614 218° Southwest 435 501 32,000  Level Kansas City Center
06:24PM 39.9856 -89.3586 218° Southwest 434 499 32,000  Level Kansas City Center
06:25PM 39.9483 -89.3972 218° Southwest 437 503 32,000  Level Chicago Center
06:25PM 39.8897 -89.4547 217° Southwest 434 499 32,000  Level Kansas City Center
06:26PM 39.7953 -89.5517 218° Southwest 431 496 32,000  Level Kansas City Center
06:27PM 39.6869 -89.6608 218° Southwest 430 495 32,000  Level Kansas City Center
06:29PM 39.5922 -89.7569 218° Southwest 432 497 32,000  Level Kansas City Center
06:30PM 39.4969 -89.8511 217° Southwest 431 496 32,000  Level Kansas City Center
06:31PM 39.4019 -89.9461 218° Southwest 433 498 32,000  Level Kansas City Center
06:32PM 39.3078 -90.0417 218° Southwest 432 497 32,000  Level Kansas City Center
06:33PM 39.2131 -90.1358 218° Southwest 432 497 32,000  Level Kansas City Center
06:34PM 39.1178 -90.2306 218° Southwest 433 498 32,000  Level Kansas City Center
06:35PM 39.0222 -90.3244 217° Southwest 434 499 32,000  Level Kansas City Center
06:36PM 38.9194 -90.4264 218° Southwest 433 498 32,000  Level Kansas City Center
06:37PM 38.8256 -90.5250 219° Southwest 434 499 32,000  Level Kansas City Center
06:38PM 38.7333 -90.6256 220° Southwest 435 501 32,000  Level Kansas City Center
06:39PM 38.6400 -90.7375 223° Southwest 437 503 32,000  Level Kansas City Center
06:40PM 38.5508 -90.8400 222° Southwest 435 501 32,000  Level Kansas City Center
06:41PM 38.4622 -90.9425 222° Southwest 431 496 32,000  Level Kansas City Center
06:42PM 38.3725 -91.0439 222° Southwest 432 497 32,000  Level Kansas City Center
06:43PM 38.2644 -91.1650 221° Southwest 431 496 32,000  Level Kansas City Center
06:44PM 38.1758 -91.2686 223° Southwest 434 499 32,000  Level Kansas City Center
06:45PM 38.0892 -91.3647 221° Southwest 424 488 32,000  Level Kansas City Center
06:46PM 37.9997 -91.4664 222° Southwest 424 488 32,000  Level Kansas City Center
06:47PM 37.9100 -91.5672 222° Southwest 426 490 32,000  Level Kansas City Center
06:48PM 37.8200 -91.6686 222° Southwest 428 493 32,000  Level Kansas City Center
06:49PM 37.7283 -91.7703 221° Southwest 431 496 32,000  Level Kansas City Center
06:50PM 37.6389 -91.8708 222° Southwest 428 493 32,000  Level Kansas City Center
06:51PM 37.5483 -91.9711 221° Southwest 428 493 32,000  Level Kansas City Center
06:52PM 37.4578 -92.0717 221° Southwest 430 495 32,000  Level Kansas City Center
06:53PM 37.3689 -92.1717 222° Southwest 427 491 32,000  Level Kansas City Center
06:54PM 37.2800 -92.2669 220° Southwest 422 486 32,000  Level Kansas City Center
06:55PM 37.1750 -92.3822 221° Southwest 419 482 32,000  Level Kansas City Center
06:56PM 37.0864 -92.4783 221° Southwest 418 481 32,000  Level Kansas City Center
06:57PM 36.9961 -92.5756 221° Southwest 422 486 32,000  Level Kansas City Center
06:58PM 36.9069 -92.6728 221° Southwest 424 488 32,000  Level Kansas City Center
06:59PM 36.8183 -92.7678 221° Southwest 422 486 32,000  Level Kansas City Center
07:00PM 36.7306 -92.8619 221° Southwest 417 480 32,000  Level Kansas City Center
07:01PM 36.6417 -92.9569 221° Southwest 419 482 32,000  Level Kansas City Center
07:02PM 36.5581 -93.0475 221° Southwest 421 484 32,000  Level Kansas City Center
07:03PM 36.4700 -93.1392 220° Southwest 418 481 32,000  Level Kansas City Center
07:04PM 36.3642 -93.2531 221° Southwest 419 482 32,000  Level Kansas City Center
07:05PM 36.3283 -93.2936 222° Southwest 422 486 32,000  Level Memphis Center
07:06PM 36.2386 -93.3856 220° Southwest 422 486 32,000  Level Memphis Center
07:07PM 36.1508 -93.4800 221° Southwest 422 486 32,000  Level Memphis Center
07:08PM 36.0608 -93.5742 220° Southwest 422 486 32,000  Level Memphis Center
07:09PM 35.9750 -93.6658 221° Southwest 422 486 32,000 120 Level Memphis Center
07:10PM 35.8850 -93.7569 219° Southwest 422 486 32,300 900 Climbing Memphis Center
07:11PM 35.7969 -93.8506 221° Southwest 422 486 33,900 840 Climbing Memphis Center
07:12PM 35.7111 -93.9364 219° Southwest 417 480 34,000  Climbing Memphis Center
07:13PM 35.6250 -94.0272 221° Southwest 417 480 34,000  Level Memphis Center
07:14PM 35.5411 -94.1153 221° Southwest 411 473 34,000  Level Memphis Center
07:15PM 35.4508 -94.2056 219° Southwest 411 473 34,000  Level Memphis Center
07:16PM 35.3625 -94.2906 218° Southwest 411 473 34,000  Level Memphis Center
07:17PM 35.2664 -94.3625 211° Southwest 411 473 34,000  Level Memphis Center
07:19PM 35.0417 -94.5378 213° Southwest 405 466 34,000  Level Fort Worth Center
07:20PM 34.9433 -94.6147 213° Southwest 416 479 34,000  Level Fort Worth Center
07:21PM 34.8469 -94.6886 212° Southwest 421 484 34,000  Level Fort Worth Center
07:22PM 34.7464 -94.7678 213° Southwest 421 484 34,000  Level Fort Worth Center
07:23PM 34.6497 -94.8364 210° Southwest 421 484 34,000  Level Fort Worth Center
07:24PM 34.5531 -94.9097 212° Southwest 421 484 34,000  Level Fort Worth Center
07:25PM 34.4567 -94.9831 212° Southwest 421 484 34,000  Level Fort Worth Center
07:26PM 34.3600 -95.0564 212° Southwest 421 484 34,000  Level Fort Worth Center
07:27PM 34.2611 -95.1269 211° Southwest 421 484 34,000  Level Fort Worth Center
07:28PM 34.1622 -95.1997 211° Southwest 421 484 34,000  Level Fort Worth Center
07:29PM 34.0633 -95.2750 212° Southwest 426 490 34,000  Level Fort Worth Center
07:30PM 33.9644 -95.3450 210° Southwest 421 484 34,000  Level Fort Worth Center
07:31PM 33.8633 -95.4200 212° Southwest 426 490 34,000  Level Fort Worth Center
07:32PM 33.7622 -95.4922 211° Southwest 426 490 34,000  Level Fort Worth Center
07:33PM 33.6631 -95.5667 212° Southwest 426 490 34,000  Level Fort Worth Center
07:34PM 33.5742 -95.6283 210° Southwest 419 482 34,000  Level Fort Worth Center
07:35PM 33.4753 -95.7050 213° Southwest 424 488 34,000  Level Fort Worth Center
07:36PM 33.3717 -95.7767 210° Southwest 424 488 34,000  Level Fort Worth Center
07:37PM 33.2683 -95.8506 211° Southwest 429 494 34,000  Level Fort Worth Center
07:38PM 33.1586 -95.9319 212° Southwest 429 494 34,000  Level Fort Worth Center
07:39PM 33.0553 -96.0056 211° Southwest 429 494 34,000  Level Fort Worth Center
07:40PM 32.9558 -96.0789 212° Southwest 429 494 34,000 -60 Level Fort Worth Center
07:41PM 32.8542 -96.1497 210° Southwest 429 494 33,900 -360 Descending Fort Worth Center
07:42PM 32.7525 -96.2228 211° Southwest 423 487 33,400 -480 Descending Fort Worth Center
07:43PM 32.6550 -96.2931 211° Southwest 423 487 33,000 -240 Descending Fort Worth Center
07:44PM 32.5556 -96.3608 210° Southwest 423 487 33,000  Level Fort Worth Center
07:45PM 32.4517 -96.4361 211° Southwest 423 487 33,000  Level Fort Worth Center
07:46PM 32.3519 -96.5083 211° Southwest 423 487 33,000 -180 Level Fort Worth Center
07:47PM 32.2503 -96.5806 211° Southwest 423 487 32,700 -900 Descending Fort Worth Center
07:48PM 32.1464 -96.6503 210° Southwest 423 487 31,300 -1,500 Descending Fort Worth Center
07:49PM 32.0425 -96.7272 212° Southwest 433 498 29,700 -1,500 Descending Fort Worth Center
07:50PM 31.9425 -96.7989 211° Southwest 438 504 28,300 -1,500 Descending Fort Worth Center
07:51PM 31.8322 -96.8778 211° Southwest 443 510 26,800 -1,260 Descending Fort Worth Center
07:52PM 31.7261 -96.9492 210° Southwest 450 518 25,800 -960 Descending Fort Worth Center
07:53PM 31.6192 -97.0208 210° Southwest 459 528 24,800 -960 Descending Houston Center
07:54PM 31.5086 -97.0914 209° Southwest 451 519 23,800 -1,200 Descending Houston Center
07:55PM 31.3711 -97.1458 199° South 442 509 22,400 -1,680 Descending Houston Center
07:56PM 31.2536 -97.1919 199° South 440 506 20,400 -2,040 Descending Houston Center
07:57PM 31.1372 -97.2375 199° South 437 503 18,300 -2,100 Descending Houston Center
07:58PM 31.0272 -97.2811 199° South 420 483 16,200 -1,980 Descending Houston Center
07:59PM 30.9203 -97.3222 198° South 421 484 14,300 -1,800 Descending Houston Center
08:00PM 30.8153 -97.3622 198° South 399 459 12,600 -1,320 Descending Houston Center
08:01PM 30.7297 -97.3953 198° South 325 374 11,600 -1,260 Descending Houston Center
08:02PM 30.6406 -97.4347 201° Southwest 297 342 10,100 -1,620 Descending Houston Center
08:03PM 30.5733 -97.4889 215° Southwest 289 333 8,300 -1,680 Descending Houston Center
08:04PM 30.5028 -97.5358 210° Southwest 291 335 6,700 -1,500 Descending Houston Center
08:05PM 30.4431 -97.5781 211° Southwest 260 299 5,300 -1,320 Descending Houston Center
08:06PM 30.3869 -97.6167 211° Southwest 238 274 4,000 -1,320 Descending Houston Center